createdAt,value
2017-11-30T00:01:21.253Z,94.87
2017-11-30T00:03:47.406Z,94.78
2017-11-30T00:06:13.530Z,93.97
2017-11-30T00:08:39.646Z,94.36
2017-11-30T00:11:05.778Z,94.39
2017-11-30T00:13:31.905Z,93.94
2017-11-30T00:15:57.974Z,93.54
2017-11-30T00:18:24.105Z,92.79
2017-11-30T00:20:50.237Z,92.39
2017-11-30T00:23:16.393Z,92.13
2017-11-30T00:25:42.510Z,92.87
2017-11-30T00:28:08.622Z,93.32
2017-11-30T00:30:34.698Z,93.21
2017-11-30T00:33:00.861Z,93.23
2017-11-30T00:35:27.009Z,93.31
2017-11-30T00:37:53.197Z,93.30
2017-11-30T00:40:19.315Z,93.20
2017-11-30T00:42:57.581Z,94.17
2017-11-30T00:45:24.009Z,94.69
2017-11-30T00:47:50.102Z,94.78
2017-11-30T00:50:16.245Z,95.01
2017-11-30T00:52:42.357Z,94.80
2017-11-30T00:55:08.511Z,94.78
2017-11-30T00:57:34.613Z,93.99
2017-11-30T01:00:00.778Z,93.25
2017-11-30T01:02:26.899Z,92.89
2017-11-30T01:04:53.027Z,92.73
2017-11-30T01:07:19.192Z,93.05
2017-11-30T01:09:45.360Z,92.75
2017-11-30T01:12:11.462Z,92.69
2017-11-30T01:14:37.598Z,92.88
2017-11-30T01:17:03.733Z,93.51
2017-11-30T01:19:29.834Z,94.00
2017-11-30T01:21:55.970Z,93.99
2017-11-30T01:24:22.073Z,94.10
2017-11-30T01:26:48.193Z,94.18
2017-11-30T01:29:14.285Z,94.78
2017-11-30T01:31:40.386Z,93.73
2017-11-30T01:34:06.566Z,93.05
2017-11-30T01:36:32.701Z,93.22
2017-11-30T01:38:58.823Z,93.20
2017-11-30T01:41:24.929Z,92.86
2017-11-30T01:43:51.161Z,92.82
2017-11-30T01:46:17.280Z,93.14
2017-11-30T01:48:43.357Z,93.36
2017-11-30T01:51:09.457Z,93.57
2017-11-30T01:53:35.582Z,93.89
2017-11-30T01:56:01.686Z,94.91
2017-11-30T01:58:27.838Z,95.10
2017-11-30T02:00:54.003Z,95.39
2017-11-30T02:03:20.106Z,95.46
2017-11-30T02:05:46.237Z,95.31
2017-11-30T02:08:12.437Z,95.42
2017-11-30T02:10:38.597Z,95.37
2017-11-30T02:13:04.713Z,95.52
2017-11-30T02:15:30.929Z,95.75
2017-11-30T02:17:57.033Z,95.69
2017-11-30T02:20:23.155Z,95.43
2017-11-30T02:22:49.293Z,95.13
2017-11-30T02:25:15.381Z,94.78
2017-11-30T02:27:41.480Z,94.79
2017-11-30T02:30:07.555Z,94.56
2017-11-30T02:32:33.631Z,94.39
2017-11-30T02:34:59.714Z,94.23
2017-11-30T02:37:25.794Z,93.58
2017-11-30T02:39:51.989Z,94.31
2017-11-30T02:42:18.061Z,94.98
2017-11-30T02:44:44.132Z,95.04
2017-11-30T02:47:10.218Z,95.44
2017-11-30T02:49:36.442Z,95.86
2017-11-30T02:52:02.504Z,95.80
2017-11-30T02:54:28.572Z,95.32
2017-11-30T02:56:54.690Z,95.39
2017-11-30T02:59:20.737Z,95.69
2017-11-30T03:01:46.851Z,96.15
2017-11-30T03:04:12.945Z,96.20
2017-11-30T03:06:39.417Z,95.85
2017-11-30T03:09:05.947Z,95.32
2017-11-30T03:11:32.068Z,94.65
2017-11-30T03:13:58.160Z,95.12
2017-11-30T03:16:24.299Z,95.37
2017-11-30T03:18:50.366Z,95.49
2017-11-30T03:21:16.509Z,95.38
2017-11-30T03:23:42.631Z,94.59
2017-11-30T03:26:08.793Z,93.47
2017-11-30T03:28:35.038Z,93.30
2017-11-30T03:31:01.143Z,93.41
2017-11-30T03:33:27.249Z,93.22
2017-11-30T03:35:53.362Z,93.96
2017-11-30T03:38:19.466Z,94.77
2017-11-30T03:40:45.602Z,95.69
2017-11-30T03:43:11.743Z,95.13
2017-11-30T03:45:37.885Z,94.40
2017-11-30T03:48:04.031Z,94.55
2017-11-30T03:50:30.549Z,94.86
2017-11-30T03:52:56.658Z,94.19
2017-11-30T03:55:22.813Z,93.76
2017-11-30T03:57:48.906Z,93.65
2017-11-30T04:00:15.057Z,93.85
2017-11-30T04:02:41.171Z,94.04
2017-11-30T04:05:07.342Z,94.95
2017-11-30T04:07:33.482Z,95.28
2017-11-30T04:09:59.808Z,95.58
2017-11-30T04:12:25.937Z,95.57
2017-11-30T04:14:52.085Z,95.36
2017-11-30T04:17:18.209Z,95.30
2017-11-30T04:19:44.297Z,95.23
2017-11-30T04:22:10.412Z,95.16
2017-11-30T04:24:36.447Z,95.17
2017-11-30T04:27:02.557Z,95.36
2017-11-30T04:29:28.738Z,95.34
2017-11-30T04:31:54.846Z,95.21
2017-11-30T04:34:20.946Z,94.85
2017-11-30T04:36:47.074Z,94.52
2017-11-30T04:39:13.218Z,93.48
2017-11-30T04:41:39.336Z,92.91
2017-11-30T04:44:05.505Z,93.21
2017-11-30T04:46:31.654Z,94.09
2017-11-30T04:48:57.737Z,94.30
2017-11-30T04:51:23.926Z,94.44
2017-11-30T04:53:50.038Z,94.28
2017-11-30T04:56:16.237Z,94.49
2017-11-30T04:58:42.357Z,95.32
2017-11-30T05:01:08.477Z,95.56
2017-11-30T05:03:34.693Z,95.44
2017-11-30T05:06:00.778Z,95.49
2017-11-30T05:08:26.852Z,94.99
2017-11-30T05:10:52.962Z,93.54
2017-11-30T05:13:19.182Z,93.21
2017-11-30T05:15:45.374Z,93.35
2017-11-30T05:18:11.501Z,93.65
2017-11-30T05:20:37.645Z,94.11
2017-11-30T05:23:03.738Z,94.32
2017-11-30T05:25:29.854Z,94.93
2017-11-30T05:27:55.907Z,94.84
2017-11-30T05:30:22.122Z,94.78
2017-11-30T05:32:48.246Z,93.27
2017-11-30T05:35:14.394Z,91.75
2017-11-30T05:37:40.513Z,91.51
2017-11-30T05:40:07.333Z,92.52
2017-11-30T05:42:33.508Z,92.88
2017-11-30T05:44:59.640Z,92.37
2017-11-30T05:47:25.793Z,92.64
2017-11-30T05:49:51.946Z,92.92
2017-11-30T05:52:18.064Z,92.77
2017-11-30T05:54:44.165Z,92.59
2017-11-30T05:57:10.288Z,93.50
2017-11-30T05:59:36.409Z,92.06
2017-11-30T06:02:02.573Z,90.46
2017-11-30T06:04:28.682Z,90.71
2017-11-30T06:06:54.769Z,92.33
2017-11-30T06:09:20.908Z,90.38
2017-11-30T06:11:47.149Z,89.80
2017-11-30T06:14:13.339Z,90.35
2017-11-30T06:16:39.430Z,90.12
2017-11-30T06:19:05.571Z,91.19
2017-11-30T06:21:31.639Z,92.62
2017-11-30T06:23:57.793Z,93.19
2017-11-30T06:26:23.938Z,92.97
2017-11-30T06:28:50.089Z,91.46
2017-11-30T06:31:16.245Z,90.05
2017-11-30T06:33:42.402Z,90.02
2017-11-30T06:36:08.579Z,90.40
2017-11-30T06:38:34.743Z,90.34
2017-11-30T06:41:00.917Z,90.84
2017-11-30T06:43:27.043Z,92.23
2017-11-30T06:45:53.202Z,93.36
2017-11-30T06:48:19.394Z,93.39
2017-11-30T06:50:45.527Z,93.85
2017-11-30T06:53:11.698Z,93.69
2017-11-30T06:55:37.857Z,93.64
2017-11-30T06:58:04.013Z,93.73
2017-11-30T07:00:30.154Z,93.64
2017-11-30T07:02:56.309Z,93.04
2017-11-30T07:05:22.459Z,92.14
2017-11-30T07:07:48.570Z,93.32
2017-11-30T07:10:14.754Z,93.23
2017-11-30T07:12:40.861Z,93.17
2017-11-30T07:15:06.963Z,92.22
2017-11-30T07:17:33.197Z,92.93
2017-11-30T07:19:59.321Z,93.15
2017-11-30T07:22:25.506Z,93.57
2017-11-30T07:24:51.705Z,94.11
2017-11-30T07:27:17.831Z,93.98
2017-11-30T07:29:44.054Z,92.47
2017-11-30T07:32:10.164Z,91.91
2017-11-30T07:34:36.312Z,90.95
2017-11-30T07:37:02.414Z,91.48
2017-11-30T07:39:28.561Z,93.00
2017-11-30T07:41:54.690Z,94.30
2017-11-30T07:44:20.846Z,94.69
2017-11-30T07:46:47.010Z,94.60
2017-11-30T07:49:13.133Z,94.57
2017-11-30T07:51:39.258Z,94.48
2017-11-30T07:54:05.383Z,94.06
2017-11-30T07:56:31.486Z,93.18
2017-11-30T07:58:57.609Z,92.30
2017-11-30T08:01:23.678Z,92.17
2017-11-30T08:03:49.829Z,92.60
2017-11-30T08:06:15.958Z,92.63
2017-11-30T08:08:42.064Z,92.62
2017-11-30T08:11:08.150Z,92.06
2017-11-30T08:13:34.275Z,93.06
2017-11-30T08:16:00.392Z,92.69
2017-11-30T08:18:26.503Z,93.93
2017-11-30T08:20:52.622Z,93.91
2017-11-30T08:23:18.789Z,92.32
2017-11-30T08:25:44.953Z,91.06
2017-11-30T08:28:11.134Z,90.81
2017-11-30T08:30:37.249Z,90.93
2017-11-30T08:33:03.366Z,91.08
2017-11-30T08:35:29.478Z,90.82
2017-11-30T08:37:55.626Z,90.36
2017-11-30T08:40:21.778Z,90.07
2017-11-30T08:42:47.934Z,89.83
2017-11-30T08:45:14.045Z,89.48
2017-11-30T08:47:40.195Z,89.66
2017-11-30T08:50:06.369Z,89.68
2017-11-30T08:52:32.433Z,89.61
2017-11-30T08:54:58.613Z,89.73
2017-11-30T08:57:24.740Z,89.45
2017-11-30T08:59:50.884Z,89.80
2017-11-30T09:02:17.090Z,89.61
2017-11-30T09:04:43.179Z,89.67
2017-11-30T09:07:09.303Z,88.47
2017-11-30T09:09:35.462Z,89.25
2017-11-30T09:12:01.602Z,88.63
2017-11-30T09:14:27.662Z,88.98
2017-11-30T09:16:53.813Z,89.10
2017-11-30T09:19:19.935Z,89.32
2017-11-30T09:21:46.067Z,89.31
2017-11-30T09:24:12.188Z,89.22
2017-11-30T09:26:38.291Z,88.45
2017-11-30T09:29:04.405Z,88.82
2017-11-30T09:31:30.518Z,88.30
2017-11-30T09:33:56.685Z,88.39
2017-11-30T09:36:23.854Z,88.60
2017-11-30T09:38:49.999Z,88.79
2017-11-30T09:41:16.170Z,89.08
2017-11-30T09:43:42.308Z,89.23
2017-11-30T09:46:08.667Z,88.52
2017-11-30T09:48:34.713Z,89.11
2017-11-30T09:51:00.854Z,88.69
2017-11-30T09:53:27.030Z,88.97
2017-11-30T09:55:53.141Z,87.89
2017-11-30T09:58:19.286Z,86.81
2017-11-30T10:00:45.466Z,86.68
2017-11-30T10:03:11.597Z,86.11
2017-11-30T10:05:37.710Z,86.03
2017-11-30T10:08:03.797Z,86.60
2017-11-30T10:10:29.993Z,86.21
2017-11-30T10:12:56.068Z,86.19
2017-11-30T10:15:22.206Z,85.82
2017-11-30T10:17:48.337Z,86.63
2017-11-30T10:20:14.461Z,86.59
2017-11-30T10:22:40.506Z,86.43
2017-11-30T10:25:06.650Z,84.97
2017-11-30T10:27:32.777Z,85.32
2017-11-30T10:29:58.865Z,86.40
2017-11-30T10:32:25.049Z,85.18
2017-11-30T10:34:51.180Z,85.23
2017-11-30T10:37:17.354Z,85.45
2017-11-30T10:39:43.465Z,85.71
2017-11-30T10:42:09.675Z,86.21
2017-11-30T10:44:35.846Z,84.64
2017-11-30T10:47:01.973Z,85.14
2017-11-30T10:49:28.149Z,84.91
2017-11-30T10:51:54.239Z,85.42
2017-11-30T10:54:20.341Z,84.47
2017-11-30T10:56:46.432Z,85.24
2017-11-30T10:59:12.557Z,85.98
2017-11-30T11:01:38.783Z,85.41
2017-11-30T11:04:04.946Z,84.40
2017-11-30T11:06:31.065Z,85.17
2017-11-30T11:08:57.217Z,85.29
2017-11-30T11:11:23.293Z,84.54
2017-11-30T11:13:49.412Z,85.06
2017-11-30T11:16:15.538Z,86.27
2017-11-30T11:18:41.638Z,85.88
2017-11-30T11:21:07.767Z,86.08
2017-11-30T11:23:33.873Z,86.07
2017-11-30T11:26:00.048Z,86.11
2017-11-30T11:28:26.151Z,85.97
2017-11-30T11:30:52.274Z,86.82
2017-11-30T11:33:18.393Z,85.92
2017-11-30T11:35:44.498Z,86.36
2017-11-30T11:38:10.642Z,86.80
2017-11-30T11:40:36.698Z,87.06
2017-11-30T11:43:02.826Z,86.30
2017-11-30T11:45:28.958Z,87.77
2017-11-30T11:47:55.114Z,87.69
2017-11-30T11:50:21.266Z,88.76
2017-11-30T11:52:47.372Z,89.57
2017-11-30T11:55:13.540Z,89.53
2017-11-30T11:57:39.646Z,90.20
2017-11-30T12:00:05.814Z,89.88
2017-11-30T12:02:31.966Z,90.76
2017-11-30T12:04:58.104Z,90.59
2017-11-30T12:07:24.250Z,91.59
2017-11-30T12:09:50.346Z,91.13
2017-11-30T12:12:16.473Z,91.24
2017-11-30T12:14:42.580Z,91.67
2017-11-30T12:17:08.670Z,92.65
2017-11-30T12:19:34.783Z,93.58
2017-11-30T12:22:00.915Z,93.63
2017-11-30T12:24:27.072Z,93.40
2017-11-30T12:26:53.164Z,92.73
2017-11-30T12:29:19.310Z,92.36
2017-11-30T12:31:45.534Z,92.92
2017-11-30T12:34:11.605Z,92.97
2017-11-30T12:36:37.753Z,92.90
2017-11-30T12:39:03.806Z,93.17
2017-11-30T12:41:29.924Z,93.90
2017-11-30T12:43:56.062Z,93.84
2017-11-30T12:46:22.172Z,93.31
2017-11-30T12:48:48.316Z,93.10
2017-11-30T12:51:14.773Z,92.39
2017-11-30T12:53:40.950Z,91.87
2017-11-30T12:56:07.086Z,91.43
2017-11-30T12:58:33.197Z,89.55
2017-11-30T13:00:59.319Z,89.94
2017-11-30T13:03:25.485Z,90.26
2017-11-30T13:05:51.563Z,90.03
2017-11-30T13:08:17.707Z,89.98
2017-11-30T13:10:43.808Z,89.87
2017-11-30T13:13:09.971Z,90.41
2017-11-30T13:15:36.076Z,89.80
2017-11-30T13:18:02.240Z,90.41
2017-11-30T13:20:28.309Z,89.48
2017-11-30T13:22:54.452Z,89.62
2017-11-30T13:25:20.613Z,89.74
2017-11-30T13:27:46.739Z,89.50
2017-11-30T13:30:12.892Z,88.70
2017-11-30T13:32:39.072Z,88.59
2017-11-30T13:35:05.204Z,89.56
2017-11-30T13:37:31.371Z,90.24
2017-11-30T13:39:57.524Z,89.58
2017-11-30T13:42:23.604Z,89.49
2017-11-30T13:44:49.687Z,89.58
2017-11-30T13:47:15.865Z,90.16
2017-11-30T13:49:41.952Z,90.26
2017-11-30T13:52:08.129Z,90.61
2017-11-30T13:54:34.191Z,90.65
2017-11-30T13:57:00.296Z,90.91
2017-11-30T13:59:26.386Z,91.26
2017-11-30T14:01:52.484Z,91.44
2017-11-30T14:04:18.620Z,91.86
2017-11-30T14:06:44.748Z,92.26
2017-11-30T14:09:10.867Z,92.64
2017-11-30T14:11:37.106Z,93.23
2017-11-30T14:14:03.289Z,93.38
2017-11-30T14:16:29.428Z,93.45
2017-11-30T14:18:55.552Z,93.40
2017-11-30T14:21:22.121Z,93.18
2017-11-30T14:23:48.268Z,93.48
2017-11-30T14:26:14.352Z,93.05
2017-11-30T14:28:40.465Z,93.33
2017-11-30T14:31:06.559Z,93.16
2017-11-30T14:33:32.628Z,92.41
2017-11-30T14:35:58.712Z,90.90
2017-11-30T14:38:24.833Z,91.00
2017-11-30T14:40:51.272Z,90.57
2017-11-30T14:43:17.457Z,89.15
2017-11-30T14:45:43.564Z,88.45
2017-11-30T14:48:09.651Z,88.27
2017-11-30T14:50:35.760Z,87.08
2017-11-30T14:53:01.881Z,86.56
2017-11-30T14:55:28.036Z,86.73
2017-11-30T14:57:54.152Z,86.81
2017-11-30T15:00:20.267Z,87.31
2017-11-30T15:02:46.372Z,87.46
2017-11-30T15:05:12.538Z,87.89
2017-11-30T15:07:38.728Z,88.49
2017-11-30T15:10:04.849Z,88.08
2017-11-30T15:12:30.959Z,88.46
2017-11-30T15:14:57.120Z,88.51
2017-11-30T15:17:23.247Z,88.62
2017-11-30T15:19:49.389Z,88.32
2017-11-30T15:22:15.496Z,88.93
2017-11-30T15:24:41.603Z,88.08
2017-11-30T15:27:08.521Z,88.47
2017-11-30T15:29:34.599Z,88.21
2017-11-30T15:32:00.769Z,86.99
2017-11-30T15:34:26.920Z,86.52
2017-11-30T15:36:52.996Z,87.27
2017-11-30T15:39:19.127Z,87.29
2017-11-30T15:41:45.346Z,86.62
2017-11-30T15:44:11.526Z,86.80
2017-11-30T15:46:37.638Z,87.44
2017-11-30T15:49:03.772Z,86.95
2017-11-30T15:51:29.827Z,87.72
2017-11-30T15:53:55.970Z,87.57
2017-11-30T15:56:22.219Z,87.46
2017-11-30T15:58:48.407Z,88.11
2017-11-30T16:01:14.587Z,87.71
2017-11-30T16:03:40.748Z,87.53
2017-11-30T16:06:06.835Z,87.51
2017-11-30T16:08:32.978Z,87.70
2017-11-30T16:10:59.136Z,88.02
2017-11-30T16:13:25.818Z,88.47
2017-11-30T16:15:51.949Z,88.35
2017-11-30T16:18:18.040Z,88.62
2017-11-30T16:20:44.250Z,88.76
2017-11-30T16:23:10.406Z,88.86
2017-11-30T16:25:36.533Z,89.10
2017-11-30T16:28:02.668Z,89.28
2017-11-30T16:30:28.799Z,89.42
2017-11-30T16:32:54.983Z,89.59
2017-11-30T16:35:21.137Z,89.24
2017-11-30T16:37:47.311Z,88.94
2017-11-30T16:40:13.452Z,88.69
2017-11-30T16:42:39.709Z,88.61
2017-11-30T16:45:05.856Z,88.90
2017-11-30T16:47:31.978Z,88.71
2017-11-30T16:49:58.234Z,88.45
2017-11-30T16:52:24.432Z,88.13
2017-11-30T16:54:50.564Z,88.23
2017-11-30T16:57:16.775Z,87.89
2017-11-30T16:59:42.952Z,88.20
2017-11-30T17:02:09.089Z,88.21
2017-11-30T17:04:35.216Z,87.85
2017-11-30T17:07:01.351Z,88.08
2017-11-30T17:09:27.486Z,88.65
2017-11-30T17:11:53.581Z,88.26
2017-11-30T17:14:19.782Z,88.43
2017-11-30T17:16:45.910Z,88.64
2017-11-30T17:19:12.112Z,88.54
2017-11-30T17:21:38.235Z,88.65
2017-11-30T17:24:04.305Z,88.29
2017-11-30T17:26:30.433Z,88.13
2017-11-30T17:28:56.657Z,88.35
2017-11-30T17:31:22.761Z,88.70
2017-11-30T17:33:48.920Z,88.44
2017-11-30T17:36:15.055Z,88.57
2017-11-30T17:38:41.255Z,88.23
2017-11-30T17:41:07.401Z,88.69
2017-11-30T17:43:33.577Z,88.11
2017-11-30T17:45:59.817Z,88.24
2017-11-30T17:48:25.940Z,89.04
2017-11-30T17:50:52.052Z,88.25
2017-11-30T17:53:18.212Z,87.74
2017-11-30T17:55:44.395Z,87.99
2017-11-30T17:58:10.467Z,87.96
2017-11-30T18:00:36.620Z,88.94
2017-11-30T18:03:02.803Z,88.29
2017-11-30T18:05:28.924Z,88.22
2017-11-30T18:07:55.313Z,87.67
2017-11-30T18:10:21.456Z,87.87
2017-11-30T18:12:47.583Z,88.48
2017-11-30T18:15:13.692Z,88.53
2017-11-30T18:17:39.812Z,89.09
2017-11-30T18:20:05.965Z,88.65
2017-11-30T18:22:32.177Z,88.22
2017-11-30T18:24:58.397Z,88.08
2017-11-30T18:27:24.494Z,88.64
2017-11-30T18:29:50.662Z,88.85
2017-11-30T18:32:16.762Z,88.84
2017-11-30T18:34:42.936Z,89.12
2017-11-30T18:37:09.062Z,89.34
2017-11-30T18:39:35.248Z,89.48
2017-11-30T18:42:01.433Z,89.08
2017-11-30T18:44:27.572Z,88.44
2017-11-30T18:46:53.720Z,88.08
2017-11-30T18:49:19.953Z,88.28
2017-11-30T18:51:46.053Z,88.22
2017-11-30T18:54:12.220Z,88.63
2017-11-30T18:56:38.407Z,88.50
2017-11-30T18:59:04.549Z,88.80
2017-11-30T19:01:30.655Z,89.14
2017-11-30T19:03:56.798Z,89.16
2017-11-30T19:06:22.892Z,89.05
2017-11-30T19:08:49.128Z,89.17
2017-11-30T19:11:15.473Z,88.69
2017-11-30T19:13:41.661Z,88.79
2017-11-30T19:16:07.805Z,88.85
2017-11-30T19:18:33.947Z,88.50
2017-11-30T19:21:00.155Z,88.26
2017-11-30T19:23:26.311Z,88.85
2017-11-30T19:25:52.492Z,89.21
2017-11-30T19:28:18.606Z,89.06
2017-11-30T19:30:44.641Z,89.71
2017-11-30T19:33:10.755Z,89.44
2017-11-30T19:35:36.984Z,89.52
2017-11-30T19:38:03.061Z,89.33
2017-11-30T19:40:29.390Z,89.29
2017-11-30T19:42:55.644Z,89.76
2017-11-30T19:45:21.953Z,89.64
2017-11-30T19:47:48.209Z,89.28
2017-11-30T19:50:14.685Z,89.06
2017-11-30T19:52:41.010Z,89.01
2017-11-30T19:55:07.235Z,88.80
2017-11-30T19:57:33.516Z,88.58
2017-11-30T19:59:59.872Z,90.07
2017-11-30T20:02:26.183Z,89.76
2017-11-30T20:04:52.573Z,89.72
2017-11-30T20:07:19.766Z,89.52
2017-11-30T20:09:46.307Z,89.11
2017-11-30T20:12:12.653Z,88.72
2017-11-30T20:14:39.038Z,89.08
2017-11-30T20:17:05.389Z,89.72
2017-11-30T20:19:31.684Z,89.55
2017-11-30T20:21:58.715Z,89.49
2017-11-30T20:24:24.996Z,88.88
2017-11-30T20:26:51.883Z,88.99
2017-11-30T20:29:19.197Z,90.12
2017-11-30T20:31:45.503Z,90.70
2017-11-30T20:34:11.749Z,90.34
2017-11-30T20:36:38.004Z,89.83
2017-11-30T20:39:04.368Z,89.48
2017-11-30T20:41:30.761Z,89.49
2017-11-30T20:43:57.934Z,89.98
2017-11-30T20:46:24.198Z,89.79
2017-11-30T20:48:50.411Z,89.32
2017-11-30T20:51:16.652Z,89.39
2017-11-30T20:53:42.876Z,89.70
2017-11-30T20:56:09.502Z,90.24
2017-11-30T20:58:35.864Z,90.35
2017-11-30T21:01:02.114Z,90.12
2017-11-30T21:03:28.346Z,90.23
2017-11-30T21:05:54.518Z,90.33
2017-11-30T21:08:20.695Z,89.84
2017-11-30T21:10:46.885Z,89.64
2017-11-30T21:13:13.057Z,90.21
2017-11-30T21:15:40.365Z,90.48
2017-11-30T21:18:06.450Z,91.13
2017-11-30T21:20:32.588Z,91.29
2017-11-30T21:22:58.734Z,90.29
2017-11-30T21:25:24.833Z,90.39
2017-11-30T21:27:51.376Z,91.10
2017-11-30T21:30:17.577Z,90.79
2017-11-30T21:32:43.720Z,90.30
2017-11-30T21:35:09.839Z,89.87
2017-11-30T21:37:36.088Z,90.57
2017-11-30T21:40:02.325Z,90.52
2017-11-30T21:42:28.467Z,90.30
2017-11-30T21:44:54.537Z,90.27
2017-11-30T21:47:20.687Z,90.45
2017-11-30T21:49:46.746Z,90.35
2017-11-30T21:52:12.893Z,90.61
2017-11-30T21:54:38.997Z,91.15
2017-11-30T21:57:05.128Z,90.63
2017-11-30T21:59:31.272Z,91.00
2017-11-30T22:01:57.385Z,91.16
2017-11-30T22:04:23.460Z,90.95
2017-11-30T22:06:49.645Z,91.28
2017-11-30T22:09:15.741Z,91.15
2017-11-30T22:11:41.879Z,91.61
2017-11-30T22:14:08.020Z,91.35
2017-11-30T22:16:34.100Z,92.22
2017-11-30T22:19:00.648Z,92.46
2017-11-30T22:21:26.772Z,92.59
2017-11-30T22:23:52.852Z,92.86
2017-11-30T22:26:18.986Z,93.11
2017-11-30T22:28:45.098Z,92.48
2017-11-30T22:31:11.217Z,92.03
2017-11-30T22:33:37.283Z,92.24
2017-11-30T22:36:03.408Z,92.78
2017-11-30T22:38:29.540Z,92.83
2017-11-30T22:40:55.676Z,92.61
2017-11-30T22:43:21.864Z,92.42
2017-11-30T22:45:47.988Z,92.40
2017-11-30T22:48:14.067Z,92.24
2017-11-30T22:50:40.229Z,92.30
2017-11-30T22:53:06.370Z,91.88
2017-11-30T22:55:32.518Z,91.84
2017-11-30T22:57:58.673Z,91.87
2017-11-30T23:00:24.720Z,91.92
2017-11-30T23:02:50.818Z,92.12
2017-11-30T23:05:16.900Z,91.82
2017-11-30T23:07:43.033Z,91.68
2017-11-30T23:10:09.148Z,92.24
2017-11-30T23:12:35.261Z,92.41
2017-11-30T23:15:01.401Z,92.57
2017-11-30T23:17:27.531Z,92.26
2017-11-30T23:19:53.682Z,92.63
2017-11-30T23:22:19.816Z,92.67
2017-11-30T23:24:46.085Z,92.58
2017-11-30T23:27:12.213Z,92.60
2017-11-30T23:29:38.312Z,92.53
2017-11-30T23:32:04.460Z,92.48
2017-11-30T23:34:30.596Z,92.10
2017-11-30T23:36:56.714Z,92.96
2017-11-30T23:39:22.840Z,92.02
2017-11-30T23:41:48.988Z,92.59
2017-11-30T23:44:15.155Z,93.12
2017-11-30T23:46:41.252Z,93.65
2017-11-30T23:49:07.373Z,93.63
2017-11-30T23:51:33.553Z,93.71
2017-11-30T23:53:59.680Z,93.78
2017-11-30T23:56:25.775Z,94.07
2017-11-30T23:58:51.911Z,93.89
